sensor_id;sensor_type;location;lat;lon;timestamp;pressure;altitude;pressure_sealevel;temperature;humidity
63006;BME280;53704;52.532;6.426;2023-03-18T00:00:36;100699.47;;;11.31;100.00
63006;BME280;53704;52.532;6.426;2023-03-18T00:03:03;100690.53;;;11.22;100.00
63006;BME280;53704;52.532;6.426;2023-03-18T00:05:28;100692.53;;;11.36;100.00
63006;BME280;53704;52.532;6.426;2023-03-18T00:07:55;100697.72;;;11.46;100.00
63006;BME280;53704;52.532;6.426;2023-03-18T00:10:21;100704.50;;;11.42;100.00
63006;BME280;53704;52.532;6.426;2023-03-18T00:12:46;100697.75;;;11.38;100.00
63006;BME280;53704;52.532;6.426;2023-03-18T00:15:13;100702.50;;;11.28;100.00
63006;BME280;53704;52.532;6.426;2023-03-18T00:17:40;100706.19;;;11.27;100.00
63006;BME280;53704;52.532;6.426;2023-03-18T00:20:07;100698.59;;;11.30;100.00
63006;BME280;53704;52.532;6.426;2023-03-18T00:22:35;100701.31;;;11.30;100.00
63006;BME280;53704;52.532;6.426;2023-03-18T00:25:01;100700.31;;;11.23;100.00
63006;BME280;53704;52.532;6.426;2023-03-18T00:27:27;100705.38;;;11.26;100.00
63006;BME280;53704;52.532;6.426;2023-03-18T00:29:53;100700.81;;;11.27;100.00
63006;BME280;53704;52.532;6.426;2023-03-18T00:32:18;100697.22;;;11.51;100.00
63006;BME280;53704;52.532;6.426;2023-03-18T00:34:45;100698.47;;;11.23;100.00
63006;BME280;53704;52.532;6.426;2023-03-18T00:37:11;100699.41;;;11.47;100.00
63006;BME280;53704;52.532;6.426;2023-03-18T00:39:43;100701.09;;;11.40;100.00
63006;BME280;53704;52.532;6.426;2023-03-18T00:42:10;100700.75;;;11.51;100.00
63006;BME280;53704;52.532;6.426;2023-03-18T00:44:36;100703.97;;;11.38;100.00
63006;BME280;53704;52.532;6.426;2023-03-18T00:47:03;100712.22;;;11.45;100.00
63006;BME280;53704;52.532;6.426;2023-03-18T00:49:28;100706.50;;;11.48;100.00
63006;BME280;53704;52.532;6.426;2023-03-18T00:51:54;100708.22;;;11.33;100.00
63006;BME280;53704;52.532;6.426;2023-03-18T00:54:20;100709.25;;;11.23;100.00
63006;BME280;53704;52.532;6.426;2023-03-18T00:56:46;100716.66;;;11.21;100.00
63006;BME280;53704;52.532;6.426;2023-03-18T00:59:12;100721.19;;;11.37;100.00
63006;BME280;53704;52.532;6.426;2023-03-18T01:01:38;100723.72;;;11.22;100.00
63006;BME280;53704;52.532;6.426;2023-03-18T01:04:04;100728.13;;;10.99;100.00
63006;BME280;53704;52.532;6.426;2023-03-18T01:06:33;100726.75;;;11.19;100.00
63006;BME280;53704;52.532;6.426;2023-03-18T01:08:59;100724.44;;;10.92;100.00
63006;BME280;53704;52.532;6.426;2023-03-18T01:11:26;100720.38;;;10.79;100.00
63006;BME280;53704;52.532;6.426;2023-03-18T01:13:52;100718.03;;;10.76;100.00
63006;BME280;53704;52.532;6.426;2023-03-18T01:16:18;100722.22;;;10.62;100.00
63006;BME280;53704;52.532;6.426;2023-03-18T01:18:45;100726.47;;;10.90;100.00
63006;BME280;53704;52.532;6.426;2023-03-18T01:21:11;100722.41;;;10.77;100.00
63006;BME280;53704;52.532;6.426;2023-03-18T01:23:37;100733.81;;;10.46;100.00
63006;BME280;53704;52.532;6.426;2023-03-18T01:26:02;100724.72;;;10.47;100.00
63006;BME280;53704;52.532;6.426;2023-03-18T01:28:28;100731.47;;;10.60;100.00
63006;BME280;53704;52.532;6.426;2023-03-18T01:30:54;100731.97;;;10.47;100.00
63006;BME280;53704;52.532;6.426;2023-03-18T01:33:20;100733.81;;;10.46;100.00
63006;BME280;53704;52.532;6.426;2023-03-18T01:35:51;100738.28;;;10.29;100.00
63006;BME280;53704;52.532;6.426;2023-03-18T01:38:18;100738.88;;;10.07;100.00
63006;BME280;53704;52.532;6.426;2023-03-18T01:40:44;100744.28;;;10.15;100.00
63006;BME280;53704;52.532;6.426;2023-03-18T01:45:35;100730.34;;;10.20;100.00
63006;BME280;53704;52.532;6.426;2023-03-18T01:48:00;100735.13;;;10.34;100.00
63006;BME280;53704;52.532;6.426;2023-03-18T01:50:30;100737.53;;;10.45;100.00
63006;BME280;53704;52.532;6.426;2023-03-18T01:53:08;100738.66;;;10.35;100.00
63006;BME280;53704;52.532;6.426;2023-03-18T01:55:35;100745.50;;;10.29;100.00
63006;BME280;53704;52.532;6.426;2023-03-18T01:58:04;100740.34;;;10.36;100.00
63006;BME280;53704;52.532;6.426;2023-03-18T02:00:30;100730.94;;;10.40;100.00
63006;BME280;53704;52.532;6.426;2023-03-18T02:02:56;100723.84;;;10.39;100.00
63006;BME280;53704;52.532;6.426;2023-03-18T02:05:24;100728.34;;;10.22;100.00
63006;BME280;53704;52.532;6.426;2023-03-18T02:07:50;100733.13;;;10.36;100.00
63006;BME280;53704;52.532;6.426;2023-03-18T02:10:22;100735.81;;;10.36;100.00
63006;BME280;53704;52.532;6.426;2023-03-18T02:12:53;100731.88;;;10.22;100.00
63006;BME280;53704;52.532;6.426;2023-03-18T02:15:21;100726.84;;;10.27;100.00
63006;BME280;53704;52.532;6.426;2023-03-18T02:18:02;100734.63;;;10.39;100.00
63006;BME280;53704;52.532;6.426;2023-03-18T02:26:00;100739.94;;;10.22;100.00
63006;BME280;53704;52.532;6.426;2023-03-18T02:28:28;100739.03;;;10.05;100.00
63006;BME280;53704;52.532;6.426;2023-03-18T02:31:01;100734.69;;;10.04;100.00
63006;BME280;53704;52.532;6.426;2023-03-18T02:33:34;100739.84;;;9.98;100.00
63006;BME280;53704;52.532;6.426;2023-03-18T02:36:08;100741.16;;;10.28;100.00
63006;BME280;53704;52.532;6.426;2023-03-18T02:38:42;100744.84;;;10.27;100.00
63006;BME280;53704;52.532;6.426;2023-03-18T02:41:17;100750.13;;;10.02;100.00
63006;BME280;53704;52.532;6.426;2023-03-18T02:43:43;100750.13;;;10.02;100.00
63006;BME280;53704;52.532;6.426;2023-03-18T02:46:14;100754.38;;;10.13;100.00
63006;BME280;53704;52.532;6.426;2023-03-18T02:48:44;100759.31;;;9.91;100.00
63006;BME280;53704;52.532;6.426;2023-03-18T02:51:12;100758.09;;;9.77;100.00
63006;BME280;53704;52.532;6.426;2023-03-18T02:53:39;100761.97;;;9.83;100.00
63006;BME280;53704;52.532;6.426;2023-03-18T02:56:05;100751.25;;;9.91;100.00
63006;BME280;53704;52.532;6.426;2023-03-18T02:58:31;100767.22;;;9.93;100.00
63006;BME280;53704;52.532;6.426;2023-03-18T03:00:57;100762.91;;;10.00;100.00
63006;BME280;53704;52.532;6.426;2023-03-18T03:03:23;100757.13;;;9.87;100.00
63006;BME280;53704;52.532;6.426;2023-03-18T03:05:49;100765.56;;;9.92;100.00
63006;BME280;53704;52.532;6.426;2023-03-18T03:08:15;100766.38;;;9.92;100.00
63006;BME280;53704;52.532;6.426;2023-03-18T03:10:41;100775.81;;;9.88;100.00
63006;BME280;53704;52.532;6.426;2023-03-18T03:13:07;100771.06;;;9.82;100.00
63006;BME280;53704;52.532;6.426;2023-03-18T03:15:35;100779.38;;;10.05;100.00
63006;BME280;53704;52.532;6.426;2023-03-18T03:18:01;100774.81;;;9.98;100.00
63006;BME280;53704;52.532;6.426;2023-03-18T03:20:28;100776.00;;;9.69;100.00
63006;BME280;53704;52.532;6.426;2023-03-18T03:22:56;100780.13;;;9.81;100.00
63006;BME280;53704;52.532;6.426;2023-03-18T03:25:22;100784.72;;;9.97;100.00
63006;BME280;53704;52.532;6.426;2023-03-18T03:27:47;100784.53;;;9.90;100.00
63006;BME280;53704;52.532;6.426;2023-03-18T03:30:14;100783.44;;;9.75;100.00
63006;BME280;53704;52.532;6.426;2023-03-18T03:32:40;100780.13;;;9.81;100.00
63006;BME280;53704;52.532;6.426;2023-03-18T03:35:06;100788.63;;;10.03;100.00
63006;BME280;53704;52.532;6.426;2023-03-18T03:37:32;100789.66;;;9.75;100.00
63006;BME280;53704;52.532;6.426;2023-03-18T03:39:58;100789.34;;;9.78;100.00
63006;BME280;53704;52.532;6.426;2023-03-18T03:42:24;100796.78;;;9.58;100.00
63006;BME280;53704;52.532;6.426;2023-03-18T03:44:49;100790.63;;;9.66;100.00
63006;BME280;53704;52.532;6.426;2023-03-18T03:47:15;100799.78;;;9.82;100.00
63006;BME280;53704;52.532;6.426;2023-03-18T03:49:40;100798.78;;;9.83;100.00
63006;BME280;53704;52.532;6.426;2023-03-18T03:52:06;100796.69;;;9.68;100.00
63006;BME280;53704;52.532;6.426;2023-03-18T03:54:32;100798.75;;;9.74;100.00
63006;BME280;53704;52.532;6.426;2023-03-18T03:56:57;100800.56;;;9.74;100.00
63006;BME280;53704;52.532;6.426;2023-03-18T03:59:23;100800.38;;;9.67;100.00
63006;BME280;53704;52.532;6.426;2023-03-18T04:01:49;100797.31;;;9.62;100.00
63006;BME280;53704;52.532;6.426;2023-03-18T04:04:15;100802.25;;;9.49;100.00
63006;BME280;53704;52.532;6.426;2023-03-18T04:06:41;100796.66;;;9.42;100.00
63006;BME280;53704;52.532;6.426;2023-03-18T04:09:06;100801.25;;;9.50;100.00
63006;BME280;53704;52.532;6.426;2023-03-18T04:11:32;100802.19;;;9.40;100.00
63006;BME280;53704;52.532;6.426;2023-03-18T04:13:57;100806.47;;;9.51;100.00
63006;BME280;53704;52.532;6.426;2023-03-18T04:16:23;100807.31;;;9.52;100.00
63006;BME280;53704;52.532;6.426;2023-03-18T04:18:48;100806.63;;;9.50;100.00
63006;BME280;53704;52.532;6.426;2023-03-18T04:21:14;100806.06;;;9.38;100.00
63006;BME280;53704;52.532;6.426;2023-03-18T04:23:40;100813.81;;;9.23;100.00
63006;BME280;53704;52.532;6.426;2023-03-18T04:26:06;100822.41;;;9.45;100.00
63006;BME280;53704;52.532;6.426;2023-03-18T04:28:31;100824.25;;;9.26;100.00
63006;BME280;53704;52.532;6.426;2023-03-18T04:30:57;100829.31;;;9.29;100.00
63006;BME280;53704;52.532;6.426;2023-03-18T04:33:22;100829.94;;;9.41;100.00
63006;BME280;53704;52.532;6.426;2023-03-18T04:35:48;100826.88;;;9.18;100.00
63006;BME280;53704;52.532;6.426;2023-03-18T04:38:14;100833.00;;;9.28;100.00
63006;BME280;53704;52.532;6.426;2023-03-18T04:40:39;100823.50;;;9.16;100.00
63006;BME280;53704;52.532;6.426;2023-03-18T04:43:07;100830.16;;;9.30;100.00
63006;BME280;53704;52.532;6.426;2023-03-18T04:45:34;100828.88;;;9.16;100.00
63006;BME280;53704;52.532;6.426;2023-03-18T04:48:00;100831.41;;;9.17;100.00
63006;BME280;53704;52.532;6.426;2023-03-18T04:50:26;100838.06;;;9.31;100.00
63006;BME280;53704;52.532;6.426;2023-03-18T04:52:53;100834.25;;;9.16;100.00
63006;BME280;53704;52.532;6.426;2023-03-18T04:55:18;100831.63;;;9.24;100.00
63006;BME280;53704;52.532;6.426;2023-03-18T04:57:45;100830.03;;;9.13;100.00
63006;BME280;53704;52.532;6.426;2023-03-18T05:00:14;100828.78;;;9.26;100.00
63006;BME280;53704;52.532;6.426;2023-03-18T05:02:39;100828.88;;;9.16;100.00
63006;BME280;53704;52.532;6.426;2023-03-18T05:05:05;100842.69;;;9.21;100.00
63006;BME280;53704;52.532;6.426;2023-03-18T05:07:32;100842.06;;;9.27;100.00
63006;BME280;53704;52.532;6.426;2023-03-18T05:09:57;100840.44;;;9.34;100.00
63006;BME280;53704;52.532;6.426;2023-03-18T05:12:23;100841.81;;;9.38;100.00
63006;BME280;53704;52.532;6.426;2023-03-18T05:14:50;100843.88;;;9.45;100.00
63006;BME280;53704;52.532;6.426;2023-03-18T05:17:16;100851.75;;;9.02;100.00
63006;BME280;53704;52.532;6.426;2023-03-18T05:19:44;100844.44;;;9.12;100.00
63006;BME280;53704;52.532;6.426;2023-03-18T05:22:10;100846.44;;;9.10;100.00
63006;BME280;53704;52.532;6.426;2023-03-18T05:24:36;100845.38;;;9.03;100.00
63006;BME280;53704;52.532;6.426;2023-03-18T05:27:02;100840.59;;;9.33;100.00
63006;BME280;53704;52.532;6.426;2023-03-18T05:29:27;100845.84;;;9.16;100.00
63006;BME280;53704;52.532;6.426;2023-03-18T05:31:53;100841.06;;;9.28;100.00
63006;BME280;53704;52.532;6.426;2023-03-18T05:34:18;100839.31;;;9.19;100.00
63006;BME280;53704;52.532;6.426;2023-03-18T05:36:43;100839.63;;;9.16;100.00
63006;BME280;53704;52.532;6.426;2023-03-18T05:39:09;100845.53;;;9.01;100.00
63006;BME280;53704;52.532;6.426;2023-03-18T05:41:35;100842.69;;;9.03;100.00
63006;BME280;53704;52.532;6.426;2023-03-18T05:44:00;100839.69;;;9.06;100.00
63006;BME280;53704;52.532;6.426;2023-03-18T05:46:25;100842.31;;;9.16;100.00
63006;BME280;53704;52.532;6.426;2023-03-18T05:48:51;100853.28;;;9.22;100.00
63006;BME280;53704;52.532;6.426;2023-03-18T05:51:16;100851.06;;;9.18;100.00
63006;BME280;53704;52.532;6.426;2023-03-18T05:53:42;100860.19;;;9.25;100.00
63006;BME280;53704;52.532;6.426;2023-03-18T05:56:07;100864.91;;;9.31;100.00
63006;BME280;53704;52.532;6.426;2023-03-18T05:58:33;100869.41;;;9.22;100.00
63006;BME280;53704;52.532;6.426;2023-03-18T06:00:58;100868.38;;;9.41;100.00
63006;BME280;53704;52.532;6.426;2023-03-18T06:03:24;100867.78;;;9.12;100.00
63006;BME280;53704;52.532;6.426;2023-03-18T06:05:50;100875.16;;;9.10;100.00
63006;BME280;53704;52.532;6.426;2023-03-18T06:08:16;100881.22;;;9.12;100.00
63006;BME280;53704;52.532;6.426;2023-03-18T06:10:41;100875.75;;;9.21;100.00
63006;BME280;53704;52.532;6.426;2023-03-18T06:13:10;100881.44;;;9.18;100.00
63006;BME280;53704;52.532;6.426;2023-03-18T06:15:36;100888.28;;;9.13;100.00
63006;BME280;53704;52.532;6.426;2023-03-18T06:18:02;100880.59;;;9.18;100.00
63006;BME280;53704;52.532;6.426;2023-03-18T06:20:29;100887.03;;;9.07;100.00
63006;BME280;53704;52.532;6.426;2023-03-18T06:22:54;100882.28;;;9.19;100.00
63006;BME280;53704;52.532;6.426;2023-03-18T06:25:20;100892.19;;;9.18;100.00
63006;BME280;53704;52.532;6.426;2023-03-18T06:27:46;100893.19;;;9.17;100.00
63006;BME280;53704;52.532;6.426;2023-03-18T06:30:13;100896.19;;;9.14;100.00
63006;BME280;53704;52.532;6.426;2023-03-18T06:32:38;100896.72;;;9.18;100.00
63006;BME280;53704;52.532;6.426;2023-03-18T06:35:05;100899.25;;;9.19;100.00
63006;BME280;53704;52.532;6.426;2023-03-18T06:37:30;100905.44;;;9.20;100.00
63006;BME280;53704;52.532;6.426;2023-03-18T06:39:56;100911.53;;;9.22;100.00
63006;BME280;53704;52.532;6.426;2023-03-18T06:42:22;100919.19;;;9.17;100.00
63006;BME280;53704;52.532;6.426;2023-03-18T06:44:48;100917.53;;;9.16;100.00
63006;BME280;53704;52.532;6.426;2023-03-18T06:47:20;100924.56;;;9.17;100.00
63006;BME280;53704;52.532;6.426;2023-03-18T06:49:49;100933.53;;;9.08;100.00
63006;BME280;53704;52.532;6.426;2023-03-18T06:52:15;100934.38;;;9.08;100.00
63006;BME280;53704;52.532;6.426;2023-03-18T06:54:41;100942.44;;;9.26;100.00
63006;BME280;53704;52.532;6.426;2023-03-18T06:57:07;100946.16;;;9.25;100.00
63006;BME280;53704;52.532;6.426;2023-03-18T06:59:32;100951.59;;;9.33;100.00
63006;BME280;53704;52.532;6.426;2023-03-18T07:01:58;100952.06;;;9.47;100.00
63006;BME280;53704;52.532;6.426;2023-03-18T07:04:23;100952.44;;;9.52;100.00
63006;BME280;53704;52.532;6.426;2023-03-18T07:06:50;100960.13;;;9.47;100.00
63006;BME280;53704;52.532;6.426;2023-03-18T07:09:17;100964.66;;;9.46;100.00
63006;BME280;53704;52.532;6.426;2023-03-18T07:11:43;100964.81;;;9.27;100.00
63006;BME280;53704;52.532;6.426;2023-03-18T07:14:10;100961.44;;;9.43;100.00
63006;BME280;53704;52.532;6.426;2023-03-18T07:16:35;100958.44;;;9.64;100.00
63006;BME280;53704;52.532;6.426;2023-03-18T07:19:01;100963.78;;;9.82;100.00
63006;BME280;53704;52.532;6.426;2023-03-18T07:21:27;100964.66;;;9.82;100.00
63006;BME280;53704;52.532;6.426;2023-03-18T07:23:53;100969.41;;;9.70;100.00
63006;BME280;53704;52.532;6.426;2023-03-18T07:26:19;100969.94;;;9.74;100.00
63006;BME280;53704;52.532;6.426;2023-03-18T07:28:46;100981.56;;;9.74;100.00
63006;BME280;53704;52.532;6.426;2023-03-18T07:31:11;100978.56;;;9.77;100.00
63006;BME280;53704;52.532;6.426;2023-03-18T07:33:37;100965.00;;;9.69;100.00
63006;BME280;53704;52.532;6.426;2023-03-18T07:36:02;100969.16;;;9.82;100.00
63006;BME280;53704;52.532;6.426;2023-03-18T07:38:28;100971.38;;;10.04;100.00
63006;BME280;53704;52.532;6.426;2023-03-18T07:40:53;100961.66;;;9.85;100.00
63006;BME280;53704;52.532;6.426;2023-03-18T07:43:21;100968.91;;;9.93;100.00
63006;BME280;53704;52.532;6.426;2023-03-18T07:45:46;100975.09;;;9.85;100.00
63006;BME280;53704;52.532;6.426;2023-03-18T07:48:12;100981.53;;;9.92;100.00
63006;BME280;53704;52.532;6.426;2023-03-18T07:50:38;100988.91;;;9.90;100.00
63006;BME280;53704;52.532;6.426;2023-03-18T07:53:05;100989.44;;;9.94;100.00
63006;BME280;53704;52.532;6.426;2023-03-18T07:55:30;100990.66;;;10.00;100.00
63006;BME280;53704;52.532;6.426;2023-03-18T07:57:55;100993.25;;;10.09;100.00
63006;BME280;53704;52.532;6.426;2023-03-18T08:00:21;100999.06;;;10.23;100.00
63006;BME280;53704;52.532;6.426;2023-03-18T08:02:47;101001.53;;;10.34;100.00
63006;BME280;53704;52.532;6.426;2023-03-18T08:05:12;100997.84;;;10.35;100.00
63006;BME280;53704;52.532;6.426;2023-03-18T08:07:38;100999.38;;;10.38;100.00
63006;BME280;53704;52.532;6.426;2023-03-18T08:10:04;100989.81;;;10.43;100.00
63006;BME280;53704;52.532;6.426;2023-03-18T08:12:30;100992.97;;;10.65;100.00
63006;BME280;53704;52.532;6.426;2023-03-18T08:14:56;100995.06;;;10.79;100.00
63006;BME280;53704;52.532;6.426;2023-03-18T08:17:22;100998.25;;;10.83;100.00
63006;BME280;53704;52.532;6.426;2023-03-18T08:19:47;100997.44;;;10.82;100.00
63006;BME280;53704;52.532;6.426;2023-03-18T08:22:13;101007.06;;;10.93;100.00
63006;BME280;53704;52.532;6.426;2023-03-18T08:24:39;100991.75;;;10.94;100.00
63006;BME280;53704;52.532;6.426;2023-03-18T08:27:05;100990.72;;;10.86;100.00
63006;BME280;53704;52.532;6.426;2023-03-18T08:29:32;100998.22;;;11.09;100.00
63006;BME280;53704;52.532;6.426;2023-03-18T08:31:57;101000.25;;;11.15;100.00
63006;BME280;53704;52.532;6.426;2023-03-18T08:34:23;101005.31;;;11.18;100.00
63006;BME280;53704;52.532;6.426;2023-03-18T08:36:49;101000.59;;;11.20;100.00
63006;BME280;53704;52.532;6.426;2023-03-18T08:39:14;101000.28;;;11.23;100.00
63006;BME280;53704;52.532;6.426;2023-03-18T08:41:40;101000.31;;;11.40;100.00
63006;BME280;53704;52.532;6.426;2023-03-18T08:44:06;101000.59;;;11.20;100.00
63006;BME280;53704;52.532;6.426;2023-03-18T08:46:37;101002.66;;;11.27;100.00
63006;BME280;53704;52.532;6.426;2023-03-18T08:49:03;101002.50;;;11.45;100.00
63006;BME280;53704;52.532;6.426;2023-03-18T08:51:29;101004.56;;;11.59;100.00
63006;BME280;53704;52.532;6.426;2023-03-18T08:53:54;101001.69;;;11.52;100.00
63006;BME280;53704;52.532;6.426;2023-03-18T08:56:20;101006.41;;;11.67;100.00
63006;BME280;53704;52.532;6.426;2023-03-18T08:58:46;101018.41;;;11.72;100.00
63006;BME280;53704;52.532;6.426;2023-03-18T09:01:12;101018.91;;;11.84;100.00
63006;BME280;53704;52.532;6.426;2023-03-18T09:03:38;101015.53;;;11.82;100.00
63006;BME280;53704;52.532;6.426;2023-03-18T09:06:03;101015.03;;;11.87;100.00
63006;BME280;53704;52.532;6.426;2023-03-18T09:08:30;101010.66;;;11.69;100.00
63006;BME280;53704;52.532;6.426;2023-03-18T09:10:57;101013.00;;;11.72;100.00
63006;BME280;53704;52.532;6.426;2023-03-18T09:13:22;101025.03;;;11.94;100.00
63006;BME280;53704;52.532;6.426;2023-03-18T09:15:48;101026.38;;;12.07;100.00
63006;BME280;53704;52.532;6.426;2023-03-18T09:18:14;101024.00;;;12.28;100.00
63006;BME280;53704;52.532;6.426;2023-03-18T09:20:41;101027.06;;;12.34;100.00
63006;BME280;53704;52.532;6.426;2023-03-18T09:23:08;101040.53;;;12.17;100.00
63006;BME280;53704;52.532;6.426;2023-03-18T09:25:34;101039.19;;;12.05;100.00
63006;BME280;53704;52.532;6.426;2023-03-18T09:27:59;101042.91;;;12.04;100.00
63006;BME280;53704;52.532;6.426;2023-03-18T09:30:25;101043.25;;;12.01;100.00
63006;BME280;53704;52.532;6.426;2023-03-18T09:32:51;101042.38;;;11.92;100.00
63006;BME280;53704;52.532;6.426;2023-03-18T09:35:18;101036.00;;;12.18;100.00
63006;BME280;53704;52.532;6.426;2023-03-18T09:37:43;101034.47;;;12.40;100.00
63006;BME280;53704;52.532;6.426;2023-03-18T09:40:17;101032.94;;;12.37;100.00
63006;BME280;53704;52.532;6.426;2023-03-18T09:45:52;101031.69;;;12.81;100.00
63006;BME280;53704;52.532;6.426;2023-03-18T09:51:27;101035.66;;;12.93;100.00
63006;BME280;53704;52.532;6.426;2023-03-18T09:54:09;101036.75;;;12.84;100.00
63006;BME280;53704;52.532;6.426;2023-03-18T09:56:37;101037.94;;;12.73;100.00
63006;BME280;53704;52.532;6.426;2023-03-18T09:59:36;101041.03;;;12.45;100.00
63006;BME280;53704;52.532;6.426;2023-03-18T10:02:07;101047.94;;;12.48;100.00
63006;BME280;53704;52.532;6.426;2023-03-18T10:04:43;101053.97;;;12.75;100.00
63006;BME280;53704;52.532;6.426;2023-03-18T10:07:16;101059.03;;;12.70;100.00
63006;BME280;53704;52.532;6.426;2023-03-18T10:10:26;101049.59;;;12.74;100.00
63006;BME280;53704;52.532;6.426;2023-03-18T10:12:56;101058.94;;;13.02;100.00
63006;BME280;53704;52.532;6.426;2023-03-18T10:15:31;101064.66;;;13.08;100.00
63006;BME280;53704;52.532;6.426;2023-03-18T10:25:52;101061.47;;;13.04;100.00
63006;BME280;53704;52.532;6.426;2023-03-18T10:33:58;101054.22;;;13.75;100.00
63006;BME280;53704;52.532;6.426;2023-03-18T10:39:15;101051.44;;;14.30;100.00
63006;BME280;53704;52.532;6.426;2023-03-18T10:41:42;101053.78;;;14.33;100.00
63006;BME280;53704;52.532;6.426;2023-03-18T10:46:46;101058.56;;;14.46;100.00
63006;BME280;53704;52.532;6.426;2023-03-18T10:49:22;101056.69;;;14.32;100.00
63006;BME280;53704;52.532;6.426;2023-03-18T10:51:52;101052.19;;;14.24;100.00
63006;BME280;53704;52.532;6.426;2023-03-18T10:54:23;101048.91;;;14.28;100.00
63006;BME280;53704;52.532;6.426;2023-03-18T10:56:51;101043.28;;;14.53;100.00
63006;BME280;53704;52.532;6.426;2023-03-18T10:59:20;101052.59;;;14.74;100.00
63006;BME280;53704;52.532;6.426;2023-03-18T11:02:13;101048.75;;;14.98;100.00
63006;BME280;53704;52.532;6.426;2023-03-18T11:04:46;101050.81;;;14.66;100.00
63006;BME280;53704;52.532;6.426;2023-03-18T11:07:17;101046.69;;;15.15;100.00
63006;BME280;53704;52.532;6.426;2023-03-18T11:09:45;101042.53;;;15.34;100.00
63006;BME280;53704;52.532;6.426;2023-03-18T11:12:14;101041.94;;;15.53;100.00
63006;BME280;53704;52.532;6.426;2023-03-18T11:14:46;101045.91;;;15.72;100.00
63006;BME280;53704;52.532;6.426;2023-03-18T11:17:28;101053.59;;;15.69;100.00
63006;BME280;53704;52.532;6.426;2023-03-18T11:20:05;101049.34;;;16.24;100.00
63006;BME280;53704;52.532;6.426;2023-03-18T11:22:36;101041.41;;;16.01;100.00
63006;BME280;53704;52.532;6.426;2023-03-18T11:25:22;101044.06;;;15.95;100.00
63006;BME280;53704;52.532;6.426;2023-03-18T11:28:26;101039.97;;;15.84;100.00
63006;BME280;53704;52.532;6.426;2023-03-18T11:30:56;101049.63;;;15.71;100.00
63006;BME280;53704;52.532;6.426;2023-03-18T11:33:29;101031.78;;;15.99;100.00
63006;BME280;53704;52.532;6.426;2023-03-18T11:35:58;101038.00;;;15.93;100.00
63006;BME280;53704;52.532;6.426;2023-03-18T11:38:26;101034.91;;;16.24;100.00
63006;BME280;53704;52.532;6.426;2023-03-18T11:41:04;101036.66;;;16.60;100.00
63006;BME280;53704;52.532;6.426;2023-03-18T11:43:31;101040.81;;;16.56;100.00
63006;BME280;53704;52.532;6.426;2023-03-18T11:45:59;101033.84;;;16.46;100.00
63006;BME280;53704;52.532;6.426;2023-03-18T11:48:37;101033.53;;;16.35;100.00
63006;BME280;53704;52.532;6.426;2023-03-18T11:56:46;101029.47;;;15.96;100.00
63006;BME280;53704;52.532;6.426;2023-03-18T12:15:23;101040.50;;;16.44;100.00
63006;BME280;53704;52.532;6.426;2023-03-18T12:20:47;101036.00;;;16.58;100.00
63006;BME280;53704;52.532;6.426;2023-03-18T12:29:17;101024.41;;;17.06;100.00
63006;BME280;53704;52.532;6.426;2023-03-18T12:32:09;101019.28;;;17.31;100.00
63006;BME280;53704;52.532;6.426;2023-03-18T12:46:09;101011.06;;;17.93;100.00
63006;BME280;53704;52.532;6.426;2023-03-18T12:48:49;101009.00;;;18.01;100.00
63006;BME280;53704;52.532;6.426;2023-03-18T12:51:23;100999.69;;;18.62;100.00
63006;BME280;53704;52.532;6.426;2023-03-18T12:53:53;101002.41;;;18.76;100.00
63006;BME280;53704;52.532;6.426;2023-03-18T12:56:24;101000.31;;;18.85;99.01
63006;BME280;53704;52.532;6.426;2023-03-18T12:59:05;101000.09;;;18.73;96.25
63006;BME280;53704;52.532;6.426;2023-03-18T13:01:36;101001.88;;;18.20;96.03
63006;BME280;53704;52.532;6.426;2023-03-18T13:04:09;100994.28;;;18.49;96.79
63006;BME280;53704;52.532;6.426;2023-03-18T13:06:57;100990.22;;;18.92;96.60
63006;BME280;53704;52.532;6.426;2023-03-18T13:09:42;100996.97;;;19.34;95.84
63006;BME280;53704;52.532;6.426;2023-03-18T13:14:59;100993.59;;;18.80;93.47
63006;BME280;53704;52.532;6.426;2023-03-18T13:17:32;101000.16;;;18.53;95.74
63006;BME280;53704;52.532;6.426;2023-03-18T13:20:02;101001.78;;;18.87;93.75
63006;BME280;53704;52.532;6.426;2023-03-18T13:22:43;101006.34;;;19.00;94.66
63006;BME280;53704;52.532;6.426;2023-03-18T13:33:07;101001.78;;;18.74;96.25
63006;BME280;53704;52.532;6.426;2023-03-18T13:38:40;101006.22;;;18.48;96.46
63006;BME280;53704;52.532;6.426;2023-03-18T13:41:12;101009.53;;;18.84;96.99
63006;BME280;53704;52.532;6.426;2023-03-18T13:43:44;101011.09;;;18.39;97.45
63006;BME280;53704;52.532;6.426;2023-03-18T13:46:21;101001.63;;;18.35;98.10
63006;BME280;53704;52.532;6.426;2023-03-18T13:48:55;100993.19;;;18.63;98.36
63006;BME280;53704;52.532;6.426;2023-03-18T13:53:48;100989.91;;;18.35;94.85
63006;BME280;53704;52.532;6.426;2023-03-18T13:56:49;100981.47;;;18.50;97.10
63006;BME280;53704;52.532;6.426;2023-03-18T14:05:40;100984.25;;;18.23;95.10
63006;BME280;53704;52.532;6.426;2023-03-18T14:13:49;100980.28;;;17.99;93.79
63006;BME280;53704;52.532;6.426;2023-03-18T14:17:01;100976.50;;;17.93;94.86
63006;BME280;53704;52.532;6.426;2023-03-18T14:19:20;100980.25;;;18.12;96.97
63006;BME280;53704;52.532;6.426;2023-03-18T14:21:53;100981.53;;;17.89;94.69
63006;BME280;53704;52.532;6.426;2023-03-18T14:24:29;100983.41;;;17.89;95.34
63006;BME280;53704;52.532;6.426;2023-03-18T14:32:05;100981.03;;;17.59;98.02
63006;BME280;53704;52.532;6.426;2023-03-18T14:38:03;100975.38;;;17.47;96.97
63006;BME280;53704;52.532;6.426;2023-03-18T14:40:35;100974.69;;;17.25;98.57
63006;BME280;53704;52.532;6.426;2023-03-18T14:43:07;100977.91;;;17.62;98.33